Date,TemperatureHighF,TemperatureAvgF,TemperatureLowF,DewpointHighF,DewpointAvgF,DewpointLowF,HumidityHigh,HumidityAvg,HumidityLow,PressureMaxIn,PressureMinIn,WindSpeedMaxMPH,WindSpeedAvgMPH,GustSpeedMaxMPH,PrecipitationSumIn
2013-3-1,21.0,13.8,5.0,10.0,4.8,-3.0,91,70,35,0.00,40.00,41,26,68,0.00
2013-3-2,27.0,23.4,20.0,9.0,4.6,0.0,54,44,33,0.00,40.00,30,16,48,0.00
2013-3-3,25.0,21.2,17.0,17.0,6.6,-6.0,94,57,25,0.00,40.00,18,14,43,0.00
2013-3-4,19.0,14.3,7.0,16.0,9.5,-99.9,94,86,31,0.00,40.00,30,19,58,0.00
2013-3-5,27.0,19.8,13.0,0.0,-28.7,-99.9,35,15,4,0.00,40.00,36,17,51,0.00
2013-3-6,26.0,20.5,17.0,12.0,6.6,-5.0,69,55,34,0.00,40.00,52,25,64,0.00
2013-3-7,26.0,21.5,18.0,9.0,1.4,-10.0,59,42,21,0.00,40.00,36,22,56,0.00
2013-3-8,21.0,15.8,11.0,15.0,9.8,0.0,94,79,40,0.00,40.00,47,24,197,0.00
2013-3-9,12.0,6.6,4.0,10.0,4.5,1.0,93,90,89,0.00,40.00,29,16,55,0.00
2013-3-10,9.0,7.0,4.0,3.0,-6.0,-12.0,90,58,36,0.00,40.00,49,35,77,0.00
2013-3-11,19.0,16.4,13.0,12.0,5.1,-5.0,93,62,40,0.00,40.00,25,21,36,0.00
2013-3-12,24.0,17.5,12.0,14.0,8.9,-99.9,93,76,33,0.00,40.00,24,15,38,0.00
2013-3-13,26.0,22.5,18.0,10.0,4.1,-2.0,61,45,34,0.00,40.00,25,12,35,0.00
2013-3-14,38.0,28.5,24.0,9.0,1.9,-4.0,46,32,21,0.00,40.00,21,12,33,0.00
2013-3-15,34.0,30.9,29.0,10.0,5.8,3.0,40,34,29,0.00,40.00,18,10,39,0.00
2013-3-16,28.0,23.6,19.0,21.0,14.8,8.0,95,70,42,0.00,40.00,23,12,39,0.00
2013-3-17,20.0,16.9,11.0,15.0,8.0,2.0,93,68,48,0.00,40.00,59,22,145,0.00
2013-3-18,15.0,10.7,7.0,2.0,-0.4,-5.0,73,61,41,0.00,40.00,28,19,49,0.00
2013-3-19,18.0,15.0,12.0,4.0,0.8,-3.0,68,52,46,0.00,40.00,21,12,39,0.00
2013-3-20,22.0,18.9,15.0,17.0,1.4,-99.9,95,57,20,0.00,40.00,21,12,45,0.00
2013-3-21,18.0,15.7,11.0,17.0,9.2,-15.0,95,77,27,0.00,40.00,28,17,109,0.00
2013-3-22,17.0,12.2,6.0,7.0,-9.1,-99.9,79,43,14,0.00,40.00,25,14,57,0.00
2013-3-23,5.0,-5.2,-11.0,-3.0,-9.5,-15.0,85,80,65,0.00,40.00,23,17,52,0.00
2013-3-24,1.0,-4.0,-8.0,-5.0,-10.4,-17.0,86,74,57,0.00,40.00,26,17,43,0.00
2013-3-25,10.0,4.2,-3.0,3.0,-16.4,-99.9,82,44,15,0.00,40.00,26,16,38,0.00
2013-3-26,23.0,17.5,9.0,11.0,5.5,0.0,93,62,37,0.00,40.00,29,19,55,0.00
2013-3-27,28.0,22.3,17.0,13.0,5.7,-1.0,81,50,34,0.00,40.00,19,10,36,0.00
2013-3-28,30.0,24.8,21.0,13.0,7.0,3.0,70,47,31,0.00,40.00,23,15,37,0.00
2013-3-29,27.0,24.8,21.0,18.0,13.9,7.0,81,63,47,0.00,40.00,23,12,72,0.00
2013-3-30,27.0,23.9,21.0,19.0,14.4,-99.9,89,72,56,0.00,40.00,17,12,35,0.00
2013-3-31,29.0,24.8,20.0,18.0,10.9,5.0,89,56,41,0.00,40.00,12,7,25,0.00